Regional Weather Synopsis
Issued by NWS Denver/Boulder, CO

Home | Current Version | Previous Version | Text Only | Print | Product List | Glossary On
Versions: 1 2 3 4 5 6 7 8 9 10 11 12 13 14 15 16 17 18 19 20 21 22 23 24 25 26 27 28 29 30 31 32 33 34 35 36 37 38 39 40 41 42 43 44 45 46 47 48 49 50
000
NZUS99 KBOU 200727
SYNBOU

Hot-Air Balloon Forecast for Colorado
National Weather Service Denver/Boulder, Colorado
0125 MDT Wednesday, March 20, 2019


* * * * * Northeast Colorado * * * * *

METAR KFNL 200656Z AUTO 21006KT 10SM CLR M03/M09 A3030 RMK AO2 SLP267
       T10281089 401001039 FZRANO
METAR KFNL 200556Z AUTO 19006KT 10SM CLR M03/M09 A3031 RMK AO2 SLP272
       T10281094 10078 21028 50013 FZRANO
METAR KFNL 200456Z AUTO 17006KT 10SM CLR M01/M11 A3031 RMK AO2 SLP270
       T10061106 FZRANO

METAR KGXY 200656Z AUTO 21004KT 10SM CLR M03/M07 A3031 RMK AO2 SLP290
       T10331072 401001044 FZRANO
METAR KGXY 200556Z AUTO 22004KT 10SM CLR M02/M07 A3032 RMK AO2 SLP291
       T10171067 10072 21028 51010 FZRANO
METAR KGXY 200456Z AUTO 00000KT 10SM CLR M01/M07 A3031 RMK AO2 SLP289
       T10111067 FZRANO

METAR KLMO 200715Z AUTO 28003KT 10SM CLR M03/M09 A3032 RMK AO2
       T10321094
METAR KLMO 200655Z AUTO 33003KT 10SM CLR M03/M10 A3032 RMK AO2
       T10341098
METAR KLMO 200635Z AUTO 27003KT 10SM CLR M03/M09 A3032 RMK AO2
       T10331095

METAR KBDU 200712Z AUTO 26003KT 10SM CLR M01/M09 A3029 RMK AO2
METAR KBDU 200654Z AUTO 00000KT 10SM CLR 00/M11 A3029 RMK AO2
METAR KBDU 200630Z AUTO 00000KT 10SM CLR 00/M10 A3030 RMK AO2

METAR KEIK 200712Z AUTO 00000KT 10SM CLR M03/M08 A3035 RMK AO2
       T10311083
METAR KEIK 200653Z AUTO 00000KT 10SM CLR M03/M08 A3035 RMK AO2
       T10291082
METAR KEIK 200636Z AUTO 00000KT 10SM CLR M02/M08 A3036 RMK AO2
       T10241082

KBJC 200531Z 2006/2106 VRB05KT P6SM SKC
     FM201800 01006KT P6SM SKC
     FM210300 24005KT P6SM FEW220
METAR KBJC 200711Z AUTO 21007KT 10SM CLR 00/M09 A3029 RMK AO2
METAR KBJC 200652Z AUTO 21006KT 10SM CLR 00/M09 A3029 RMK AO2
METAR KBJC 200634Z AUTO 21006KT 10SM CLR 00/M08 A3030 RMK AO2

KDEN 200531Z 2006/2112 16008KT P6SM SKC
     FM200700 21007KT P6SM SKC
     FM201500 VRB05KT P6SM SKC
     FM202000 03007KT P6SM SKC
     FM210300 14007KT P6SM FEW220
     FM210600 20009KT P6SM FEW220
METAR KDEN 200653Z 21006KT 10SM CLR M02/M06 A3029 RMK AO2 SLP260
       T10221061 400781028
METAR KDEN 200553Z 18009KT 10SM CLR M02/M06 A3030 RMK AO2 SLP264
       T10171061 10061 21022 50007
METAR KDEN 200453Z 16008KT 10SM CLR M02/M06 A3031 RMK AO2 SLP268
       T10171061

METAR KFTG 200712Z AUTO 20005KT 10SM CLR M01/M05 A3030 RMK AO2
       T10131050
METAR KFTG 200654Z AUTO 21007KT 10SM CLR M01/M05 A3030 RMK AO2
       T10091050
METAR KFTG 200636Z AUTO 22005KT 10SM CLR 00/M05 A3030 RMK AO2
       T10021052

METAR KBKF 200658Z 19007KT 10SM CLR M03/M06 A3029 RMK AO2A SLP262
       T10321063 400751036
METAR KBKF 200558Z 18006KT 10SM CLR M03/M06 A3031 RMK AO2A SLP273
       T10351060 10066 21036 50006
METAR KBKF 200458Z 15007KT 10SM CLR M02/M07 A3032 RMK AO2A SLP277
       T10251072

KAPA 200531Z 2006/2106 18007KT P6SM SKC
     FM201500 VRB05KT P6SM SKC
     FM202000 03007KT P6SM SKC
     FM210300 14007KT P6SM FEW220
METAR KAPA 200653Z 19004KT 10SM CLR M03/M07 A3029 RMK AO2 SLP284
       T10331072 400671039
METAR KAPA 200553Z 18005KT 10SM CLR M03/M08 A3030 RMK AO2 SLP284
       T10281078 10050 21028 50007
METAR KAPA 200453Z 00000KT 10SM CLR M01/M08 A3031 RMK AO2 SLP287
       T10111083

METAR KMNH 200706Z AUTO 10SM CLR M06/M10 A3030 RMK AO2
METAR KMNH 200647Z AUTO 10SM CLR M05/M10 A3030 RMK AO2
METAR KMNH 200624Z AUTO 10SM CLR M05/M09 A3031 RMK AO2

METAR KFMM 200715Z AUTO 30006KT 10SM M04/M07 A3030 RMK AO2 T10411072
METAR KFMM 200655Z AUTO 30007KT 10SM M04/M08 A3030 RMK AO2 T10431077
METAR KFMM 200635Z AUTO 32007KT 10SM M02/M07 A3030 RMK AO2 T10251072

METAR KSTK 200715Z AUTO 28009KT 10SM CLR M03/M06 A3027 RMK AO2
METAR KSTK 200650Z AUTO 28007KT 10SM CLR M04/M06 A3028 RMK AO2
METAR KSTK 200635Z AUTO 28006KT 10SM CLR M04/M06 A3028 RMK AO2

METAR KAKO 200653Z AUTO 26008KT 10SM CLR M04/M07 A3026 RMK AO2 SLP270
       T10441072 400831050
METAR KAKO 200553Z AUTO 26006KT 10SM CLR M04/M07 A3028 RMK AO2 SLP275
        T10441072 10056 21050 50006
METAR KAKO 200453Z AUTO 31005KT 10SM CLR M04/M07 A3028 RMK AO2 SLP278
       T10391072

METAR KLIC 200655Z AUTO 29008KT 10SM CLR M04/M06 A3029 RMK AO2 SLP268
       T10441061 400891044
METAR KLIC 200555Z AUTO 27007KT 10SM FEW095 M03/M06 A3030 RMK AO2 SLP270
       T10331061 10056 21039 51009
METAR KLIC 200455Z AUTO 31005KT 10SM FEW095 M03/M06 A3030 RMK AO2 SLP270
       T10331061

METAR KHEQ 200710Z AUTO 28008KT 10SM CLR M03/M06 A3027 RMK AO2
METAR KHEQ 200650Z AUTO 28007KT 10SM CLR M03/M06 A3027 RMK AO2
METAR KHEQ 200630Z AUTO 27007KT 10SM CLR M03/M06 A3028 RMK AO2

METAR K2V6 200714Z AUTO 26006KT 10SM CLR M06/M08 A3027 RMK AO2
METAR K2V6 200654Z AUTO 27008KT 10SM CLR M06/M07 A3027 RMK AO2
METAR K2V6 200634Z AUTO 28007KT 10SM CLR M06/M07 A3027 RMK AO2

METAR K2V5 200715Z AUTO 27006KT 10SM CLR M04/M05 A3028 RMK AO2
METAR K2V5 200655Z AUTO 27006KT 10SM CLR M03/M05 A3028 RMK AO2
METAR K2V5 200635Z AUTO 29005KT 10SM CLR M03/M05 A3029 RMK AO2

METAR KITR 200653Z AUTO 29006KT 10SM CLR M04/M06 A3028 RMK AO2 SLP261
       T10441061 401171050
METAR KITR 200553Z AUTO 27008KT 10SM CLR M04/M07 A3029 RMK AO2 SLP266
       T10441067 10083 21050 51010
METAR KITR 200453Z AUTO 27006KT 10SM CLR M04/M07 A3029 RMK AO2 SLP267
       T10441067

Sunrise/Sunset for 03/20/2019
Fort Collins - 07:03:34 MDT / 19:11:53 MDT
Denver       - 07:03:12 MDT / 19:11:25 MDT
Sterling     - 06:56:09 MDT / 19:04:29 MDT

Denver/Boulder (KFTG) 03/20/19 07:12 UTC
Radar VAD winds      Height      Dir/Spd(kt)
                   8100 FT MSL...180/007
                   8000 FT MSL...164/017
                   7300 FT MSL...171/017
                   7000 FT MSL...174/015
                   6600 FT MSL...173/016

Denver/Boulder Aviation Discussion
Issued at 0323 UTC Wednesday, March 20, 2019

.AVIATION...(For the 06Z TAFS through 06Z Wednesday night)
Issued at 918 PM MDT Tue Mar 19 2019
Models all indicate that, weak, normal drainage wind patterns
should kick in at DIA by midnight. There will be no ceiling
issues, and likely, no clouds at all overnight.


* * * * * Southeast Colorado * * * * *

METAR K4BM 200712Z AUTO 32007KT 290V350 10SM CLR M10/M19 A3028 RMK AO2
       LTG DSNT NW
METAR K4BM 200655Z AUTO 31006KT 10SM CLR M10/M17 A3028 RMK AO2
METAR K4BM 200631Z AUTO 31004KT 10SM CLR M10/M16 A3028 RMK AO2

METAR KAFF 200658Z AUTO 01008KT 10SM CLR M06/M09 A3028 RMK AO2 SLP284
       T10561095 400531056
METAR KAFF 200558Z AUTO 01008KT 10SM CLR M04/M09 A3029 RMK AO2 SLP281
       60000 T10441092 10029 21044 51009

KCOS 200540Z 2006/2106 01008KT P6SM SCT050
     FM201100 34005KT P6SM SKC
     FM201900 13007KT P6SM SKC
METAR KCOS 200654Z 36007KT 10SM FEW020 M03/M09 A3030 RMK AO2 SLP283
       T10281094 400721044
METAR KCOS 200554Z 01008KT 10SM FEW030 M04/M08 A3031 RMK AO2 SLP286
       60000 I6001 T10391083 10017 21039 51011
METAR KCOS 200454Z 35008KT 10SM BKN050 M01/M07 A3031 RMK AO2 SLP282
       T10061072

METAR KABH 200656Z AUTO 02008KT A3029 RMK AO2 SLPNO $
METAR KABH 200556Z AUTO VRB05KT A3030 RMK AO2 SLPNO 51011 $
METAR KABH 200456Z AUTO 05005KT A3029 RMK AO2 SLPNO $

METAR KFLY 200715Z AUTO 32005KT 10SM CLR M05/M10 A3030 RMK AO2
       T10551097
METAR KFLY 200655Z AUTO 32003KT 10SM CLR M06/M10 A3030 RMK AO2 T10561102
       400531056
METAR KFLY 200635Z AUTO 28009KT 10SM CLR M05/M10 A3030 RMK AO2
       T10521102

KFCS 200500Z 2005/2111 VRB06KT 9999 SCT020 BKN055 QNH3028INS
      BECMG 2012/2013 35009KT 9999 FEW050 FEW220 QNH3030INS
      BECMG 2016/2017 28009KT 9999 FEW220 QNH3035INS
      BECMG 2100/2101 VRB06KT 9999 SKC QNH3025INS
      BECMG 2104/2105 35009KT 9999 SKC QNH3020INS TX08/2022Z
      TNM05/2013Z
METAR KFCS 200658Z AUTO 00000KT 10SM BKN046 M02/M07 A3030 RMK AO2 SLP306
       T10231072 400641024 $
METAR KFCS 200558Z AUTO 09006KT 10SM BKN047 BKN055 M01/M04 A3030 RMK AO2
       SLP300 60005 T10101037 10018 21012 52012 $
METAR KFCS 200458Z AUTO 00000KT 10SM FEW041 OVC050 00/M02 A3030 RMK AO2
       SLP300 T00041018 $

KPUB 200540Z 2006/2106 24006KT P6SM BKN060
     FM200800 VRB04KT P6SM SCT060
     FM201300 VRB04KT P6SM SKC
     FM202000 10007KT P6SM SKC
     FM210200 VRB03KT P6SM SKC
METAR KPUB 200653Z AUTO 01006KT 10SM SCT065 03/M01 A3031 RMK AO2 SLP267
       T00281011 401060028
METAR KPUB 200553Z AUTO 30006KT 10SM BKN065 OVC080 04/M02 A3031 RMK AO2
       SLP262 T00441017 10094 20044 51012
METAR KPUB 200453Z AUTO 19005KT 10SM OVC050 05/M01 A3031 RMK AO2 SLP260
        T00501011


METAR KTAD 200654Z AUTO 00000KT 10SM OVC050 02/M02 A3030 RMK AO2 SLP252
       T00221022 400780011
METAR KTAD 200554Z AUTO 00000KT 10SM OVC047 02/M02 A3030 RMK AO2 SLP256
       T00221017 10067 20022 51012
METAR KTAD 200454Z AUTO 02005KT 10SM BKN046 OVC065 03/M01 A3030 RMK AO2
       SLP254 T00281011

METAR KLHX 200653Z AUTO 34006KT 10SM FEW055 BKN075 OVC090 03/M06 A3031
       RMK AO2 SLP252 T00331056 401280011
METAR KLHX 200553Z AUTO 36006KT 10SM OVC075 06/M05 A3030 RMK AO2 SLP247
       T00561050 10106 20056 50012
METAR KLHX 200453Z AUTO 35005KT 10SM BKN070 OVC085 07/M06 A3031 RMK AO2
       SLP250 T00671056

METAR KLAA 200653Z AUTO 10SM CLR 00/M06 A3029 RMK AO2 SLP254 T00001061
       401390000
METAR KLAA 200553Z AUTO 10SM SCT090 03/M06 A3029 RMK AO2 SLP250
       T00281056 10117 20028 51017
METAR KLAA 200453Z AUTO 00000KT 10SM OVC100 04/M05 A3028 RMK AO2 SLP250
       T00441050

METAR KSPD 200656Z AUTO 29005KT M01/M05 A3028 RMK AO1 SLP246 T10061050
       401281006
METAR KSPD 200556Z AUTO 32005KT 00/M06 A3028 RMK AO1 SLP250 T00001056
       10089 20000 51013
METAR KSPD 200456Z AUTO 02003KT 02/M06 A3027 RMK AO1 SLP247
       T00171056

Sunrise/Sunset for 03/20/2019
Burlington - 06:52:27 MDT / 19:00:38 MDT
Pueblo     - 07:01:54 MDT / 19:09:58 MDT
Lamar      - 06:53:54 MDT / 19:01:57 MDT

Pueblo (KPUX) 03/20/19 07:06 UTC
Radar VAD winds      Height      Dir/Spd(kt)
                  13000 FT MSL...323/033
                   7000 FT MSL...131/007
                   6300 FT MSL...108/002

Pueblo Aviation Discussion
Issued at 0540 UTC Wednesday, March 20, 2019

.AVIATION...(For the 06Z TAFS through 06Z Wednesday night)
Issued at 1130 PM MDT Tue Mar 19 2019
VFR conditions are expected at KCOS, KPUB and KALS the next 24
hrs. Winds are expected to generally stay under 12 kts.


* * * * * Northwest Colorado * * * * *

METAR KCAG 200653Z AUTO 08003KT 10SM CLR M09/M12 A3035 RMK AO2 SLP334
       T10941122 400331139
METAR KCAG 200553Z AUTO 07003KT 10SM CLR M08/M11 A3035 RMK AO2 SLP332
       T10781106 10033 21094 51012
METAR KCAG 200453Z AUTO 13004KT 10SM CLR M08/M11 A3034 RMK AO2 SLP336
       T10831111

METAR KHDN 200656Z AUTO 00000KT 10SM CLR M07/M12 A3035 RMK AO2 SLP311
       T10721117 FZRANO
METAR KHDN 200556Z AUTO 18003KT 10SM CLR M08/M12 A3035 RMK AO2 SLP325
       T10831117 10000 21089 400171128 51009 FZRANO
METAR KHDN 200456Z AUTO 04003KT 10SM CLR M04/M09 A3034 RMK AO2 SLP317
       T10441094 FZRANO

METAR KSBS 200716Z AUTO 00000KT 10SM CLR M07/M10 A3034 RMK AO1
       T10751100
METAR KSBS 200655Z AUTO 00000KT 10SM CLR M07/M09 A3034 RMK AO1
       T10741093
METAR KSBS 200635Z AUTO 00000KT 10SM CLR M08/M09 A3034 RMK AO1
       T10771095

METAR KC07 200706Z AUTO 32003KT 10SM CLR M09/M22 A3028 RMK AO2
METAR KC07 200646Z AUTO 10SM CLR M08/M21 A3028 RMK AO2
METAR KC07 200628Z AUTO 10SM CLR M09/M16 A3028 RMK AO2

METAR K33V 200715Z AUTO 14006KT 10SM CLR M18/M22 A3035 RMK AO1
METAR K33V 200655Z AUTO 14006KT 10SM CLR M18/M23 A3034 RMK AO1
METAR K33V 200635Z AUTO 15005KT 10SM CLR M17/M22 A3035 RMK AO1

METAR KEEO 200653Z AUTO 07004KT 10SM CLR M08/M11 A3033 RMK AO2 SLP288
       T10781111 400611078
METAR KEEO 200553Z AUTO 00000KT 10SM CLR M06/M10 A3033 RMK AO2 SLP291
       T10561100 10039 21061 51010
METAR KEEO 200453Z AUTO 07004KT 10SM CLR M04/M09 A3032 RMK AO2 SLP290
       T10441094

METAR K20V 200713Z AUTO 09004KT 10SM CLR M08/M12 A3036 RMK AO2
METAR K20V 200653Z AUTO 11004KT 10SM CLR M08/M12 A3036 RMK AO2
METAR K20V 200630Z AUTO 00000KT 10SM CLR M08/M11 A3036 RMK AO2

METAR KGNB 200710Z AUTO 00000KT 10SM CLR M13/M19 A3035 RMK AO2
       T11311187
METAR KGNB 200650Z AUTO 00000KT 10SM CLR M13/M19 A3034 RMK AO2 T11351194
       400101135
METAR KGNB 200625Z AUTO 05004KT 10SM CLR M13/M19 A3034 RMK AO2
       T11291188

METAR K0CO 200724Z AUTO 33017KT CLR M16/M22 A3024 RMK AO2 PWINO
METAR K0CO 200706Z AUTO 33019KT CLR M16/M22 A3023 RMK AO2 PWINO
METAR K0CO 200642Z AUTO 32023G28KT CLR M16/M21 A3022 RMK AO2 PWINO

KGJT 200528Z 2006/2106 VRB03KT P6SM SKC
     FM201300 09006KT P6SM FEW250
     FM201600 12008KT P6SM SKC
     FM201900 VRB04KT P6SM FEW250
     FM210300 07007KT P6SM FEW150 SCT250
METAR KGJT 200653Z AUTO 32003KT 10SM CLR 02/M09 A3027 RMK AO2 SLP235
       T00221094 401391011
METAR KGJT 200553Z AUTO 21004KT 10SM CLR 02/M08 A3026 RMK AO2 SLP236
       T00221083 10122 20011 51014
METAR KGJT 200453Z AUTO 00000KT 10SM CLR 04/M09 A3026 RMK AO2 SLP233
        T00391089

KRIL 200528Z 2006/2106 VRB03KT P6SM SKC
METAR KRIL 200653Z AUTO 00000KT 10SM CLR M02/M07 A3031 RMK AO2 SLP263
       T10221072 401171028
METAR KRIL 200553Z AUTO 00000KT 10SM CLR M02/M07 A3031 RMK AO2 SLP264
       T10171072 10100 21017 51017
METAR KRIL 200453Z AUTO 00000KT 10SM CLR 00/M08 A3029 RMK AO2 SLP259
       T00001083

METAR K5SM 200712Z AUTO 06004KT 10SM CLR M11/M16 A3033 RMK AO2
METAR K5SM 200653Z AUTO 05004KT 10SM CLR M11/M16 A3033 RMK AO2
METAR K5SM 200630Z AUTO 06004KT 10SM CLR M11/M15 A3033 RMK AO2

KEGE 200528Z 2006/2106 VRB03KT P6SM SKC
METAR KEGE 200656Z AUTO 13003KT 10SM CLR M04/M09 A3036 RMK AO2 SLP313
        T10441089 FZRANO
METAR KEGE 200556Z AUTO 16003KT 10SM CLR M04/M09 A3035 RMK AO2 SLP310
       T10391089 10061 21039 400831050 51016 FZRANO
METAR KEGE 200456Z AUTO 00000KT 10SM CLR M03/M08 A3034 RMK AO2 SLP307
       T10281083 FZRANO

KASE 200528Z 2006/2106 20006KT P6SM SKC
     FM201500 00000KT P6SM SKC
     FM201800 36005KT P6SM SKC
     FM202200 33005KT P6SM FEW250
     FM210200 17006KT P6SM FEW120 SCT200
METAR KASE 200653Z AUTO 21007KT 10SM CLR M05/M13 A3029 RMK AO2 SLP241
       T10501128 400501061
METAR KASE 200553Z AUTO 21006KT 10SM CLR M05/M12 A3029 RMK AO2 SLP240
       T10501122 10039 21050 51016
METAR KASE 200453Z AUTO 20007KT 10SM CLR M04/M11 A3027 RMK AO2 SLP235
       T10391111

METAR KCCU 200712Z AUTO 27003KT 10SM CLR M10/M19 A3028 RMK AO2
METAR KCCU 200653Z AUTO 25005KT 10SM CLR M10/M20 A3028 RMK AO2
METAR KCCU 200635Z AUTO 25005KT 10SM CLR M10/M17 A3028 RMK AO2

METAR KLXV 200653Z AUTO 04004KT 10SM CLR M16/M21 A3028 RMK AO2 SLP261
       T11611211 400061161
METAR KLXV 200553Z AUTO 05007KT 10SM CLR M15/M20 A3028 RMK AO2 SLP260
       T11501200 11017 21150 51009
METAR KLXV 200453Z AUTO 01003KT 10SM CLR M13/M19 A3028 RMK AO2 SLP254
       T11331194

Sunrise/Sunset for 03/20/2019
Rangely           - 07:18:26 MDT / 19:26:42 MDT
Grand Junction    - 07:17:35 MDT / 19:25:44 MDT
Steamboat Springs - 07:10:35 MDT / 19:18:53 MDT

Grand Junction (KGJX) 03/20/19 07:14 UTC
Radar VAD winds      Height      Dir/Spd(kt)
                  18000 FT MSL...330/002
                  18000 FT MSL...333/001
                  12000 FT MSL...158/017
                  11100 FT MSL...140/016
                  11000 FT MSL...130/009
                  11000 FT MSL...153/011
                  10400 FT MSL...111/008

Grand Junction Aviation Discussion
Issued at 0337 UTC Wednesday, March 20, 2019

.AVIATION...(For the 06Z TAFS through 06Z Wednesday night)
Issued at 937 PM MDT Tue Mar 19 2019
Widespread VFR conditions are expected across eastern Utah and
western Colorado through 00Z Thursday. Mostly clear skies will
prevail with just some passing high clouds. After 18Z Wednesday
mid and high level clouds will increase across the south as the
next disturbance begins to impact the region. A few showers will
be possible across southeast Utah after 00Z Thursday with
mountains becoming obscured at times.


* * * * * Southwest Colorado * * * * *

METAR KAJZ 200715Z AUTO 03007KT 10SM CLR 02/M10 A3028 RMK AO2
       T00161100
METAR KAJZ 200655Z AUTO 05006KT 10SM CLR 02/M10 A3028 RMK AO2
       T00241104
METAR KAJZ 200635Z AUTO 02004KT 10SM CLR 02/M10 A3027 RMK AO2
       T00211099

KMTJ 200528Z 2006/2106 VRB03KT P6SM SKC
     FM201100 VRB04KT P6SM FEW250
     FM210200 12007KT P6SM SCT250
METAR KMTJ 200653Z AUTO 17007KT 10SM CLR M02/M08 A3029 RMK AO2 SLP244
       T10171078 401171017
METAR KMTJ 200553Z AUTO 17004KT 10SM CLR 00/M07 A3029 RMK AO2 SLP244
       T00001072 10111 20000 51021
METAR KMTJ 200453Z AUTO 00000KT 10SM CLR 02/M08 A3027 RMK AO2 SLP235
       T00171078

METAR KGUC 200656Z AUTO 00000KT 10SM CLR M07/M11 A3030 RMK AO2 SLP308
       T10671106 FZRANO
METAR KGUC 200556Z AUTO 00000KT 10SM CLR M07/M09 A3029 RMK AO2 SLP310
       T10721089 10011 21072 400111111 51015 FZRANO
METAR KGUC 200456Z AUTO 10003KT 10SM CLR M07/M09 A3028 RMK AO2 SLP306
       T10671089 FZRANO

METAR K7BM 200706Z AUTO 27004KT 10SM CLR M05/M18 A3029 RMK AO2
METAR K7BM 200644Z AUTO 00000KT 10SM CLR M04/M14 A3029 RMK AO2
METAR K7BM 200626Z AUTO 24003KT 10SM CLR M04/M17 A3029 RMK AO2

METAR KAEJ 200715Z AUTO 33005KT 10SM CLR M04/M14 A3030 RMK AO2
       T10421145
METAR KAEJ 200655Z AUTO 33007KT 10SM CLR M04/M14 A3030 RMK AO2
       T10401142
METAR KAEJ 200635Z AUTO 30008KT 10SM CLR M03/M14 A3030 RMK AO2
       T10331145

METAR KANK 200715Z AUTO 00000KT 10SM CLR M03/M05 A3038 RMK AO1
       T10351055
METAR KANK 200655Z AUTO 00000KT 10SM CLR M03/M05 A3038 RMK AO1 T10281055
METAR KANK 200635Z AUTO 00000KT 10SM CLR M02/M05 A3037 RMK AO1
       T10241051

METAR KMYP 200712Z AUTO 00000KT 10SM CLR M08/M22 A3038 RMK AO2
METAR KMYP 200653Z AUTO 00000KT 10SM CLR M09/M20 A3038 RMK AO2
METAR KMYP 200636Z AUTO 00000KT 10SM CLR M10/M16 A3038 RMK AO2

METAR KAIB 200715Z AUTO 11007KT 10SM CLR 00/M06 A3028 RMK AO2
METAR KAIB 200655Z AUTO 11005KT 10SM CLR 00/M06 A3027 RMK AO2
METAR KAIB 200635Z AUTO 13003KT 10SM CLR 01/M07 A3027 RMK AO2

KTEX 200528Z 2006/2106 12005KT P6SM SKC
     FM201600 00000KT P6SM FEW200
     FM202100 22006KT P6SM FEW080 SCT250
     FM210100 12006KT P6SM FEW070 SCT200
     FM210500 13012KT P6SM VCSH SCT080 BKN150
METAR KTEX 200715Z AUTO 13006KT 10SM CLR M05/M12 A3027 RMK AO2
METAR KTEX 200655Z AUTO 14005KT 10SM CLR M04/M12 A3027 RMK AO2
METAR KTEX 200635Z AUTO 00000KT 10SM CLR M05/M12 A3027 RMK AO2

METAR K04V 200718Z AUTO 00000KT 10SM CLR M01/M11 A3027 RMK AO2
METAR K04V 200654Z AUTO 00000KT 10SM CLR M02/M11 A3027 RMK AO2
METAR K04V 200636Z AUTO 00000KT 10SM CLR M01/M11 A3026 RMK AO2

METAR KCEZ 200653Z AUTO 00000KT 10SM CLR M01/M08 A3020 RMK AO2 SLP200
       T10061078 401441028
METAR KCEZ 200553Z AUTO 36007KT 10SM CLR M01/M06 A3019 RMK AO2 SLP199
       T10061061 10133 21011 51008
METAR KCEZ 200453Z AUTO 09005KT 10SM CLR 00/M06 A3019 RMK AO2 SLP201
       T00001061

KDRO 200528Z 2006/2106 07006KT P6SM SKC
     FM202300 08007KT P6SM FEW080 SCT250
     FM210300 06006KT P6SM SCT090 BKN110
METAR KDRO 200653Z AUTO 31003KT 10SM CLR 00/M08 A3019 RMK AO2 SLP208
       T00001078 401221028
METAR KDRO 200553Z AUTO 01008KT 10SM CLR 02/M09 A3018 RMK AO2 SLP200
       T00221089 10111 20017 50010
METAR KDRO 200453Z AUTO 07008KT 10SM CLR 02/M07 A3018 RMK AO2 SLP213
       T00171072

METAR KPSO 200715Z AUTO 00000KT 10SM CLR M02/M12 A3023 RMK AO2
       T10161117
METAR KPSO 200655Z AUTO 00000KT 10SM CLR 00/M11 A3022 RMK AO2
       T10021113
METAR KPSO 200635Z AUTO 31004KT 10SM CLR M02/M09 A3022 RMK AO2
       T10251092

METAR KCPW 200706Z AUTO 35006KT 10SM CLR M08/M17 A3032 RMK AO2
METAR KCPW 200647Z AUTO 36007KT 10SM CLR M08/M17 A3032 RMK AO2
METAR KCPW 200629Z AUTO 36006KT 10SM CLR M08/M17 A3032 RMK AO2

KALS 200540Z 2006/2106 VRB03KT P6SM SCT080
     FM201400 VRB03KT P6SM SCT200
     FM202000 15006KT P6SM SCT200
METAR KALS 200652Z AUTO 00000KT 10SM CLR M03/M07 A3025 RMK AO2 SLP229
       T10281067 401001050
METAR KALS 200552Z AUTO 10SM CLR M02/M07 A3024 RMK AO2 SLP229 T10221067
       10078 21022 51015
METAR KALS 200452Z AUTO 11008KT 10SM OVC085 M01/M06 A3023 RMK AO2 SLP221
       T10061061

Sunrise/Sunset for 03/20/2019
Vail    - 07:08:47 MDT / 19:16:59 MDT
Durango - 07:14:57 MDT / 19:22:55 MDT
Alamosa - 07:06:57 MDT / 19:14:56 MDT

Grand Junction (KGJX) 03/20/19 07:14 UTC
Radar VAD winds      Height      Dir/Spd(kt)
                  18000 FT MSL...330/002
                  18000 FT MSL...333/001
                  12000 FT MSL...158/017
                  11100 FT MSL...140/016
                  11000 FT MSL...130/009
                  11000 FT MSL...153/011
                  10400 FT MSL...111/008

Grand Junction Aviation Discussion
Issued at 0337 UTC Wednesday, March 20, 2019

.AVIATION...(For the 06Z TAFS through 06Z Wednesday night)
Issued at 937 PM MDT Tue Mar 19 2019
Widespread VFR conditions are expected across eastern Utah and
western Colorado through 00Z Thursday. Mostly clear skies will
prevail with just some passing high clouds. After 18Z Wednesday
mid and high level clouds will increase across the south as the
next disturbance begins to impact the region. A few showers will
be possible across southeast Utah after 00Z Thursday with
mountains becoming obscured at times.


* * * * * Arizona * * * * *

KPGA 200531Z 2006/2106 07005KT P6SM FEW080 SCT100
      TEMPO 2018/2021 P6SM -SHRA BKN250
     FM202100 06008KT P6SM OVC100
      TEMPO 2021/2024 P6SM -SHRA BKN050 OVC100
     FM210000 07005KT P6SM -SHRA OVC050
METAR KPGA 200653Z AUTO 08006KT 10SM OVC110 12/M10 A3014 RMK AO2 SLP169
       T01221100 401940083 TSNO
METAR KPGA 200553Z AUTO 06004KT 10SM FEW095 13/M10 A3013 RMK AO2 SLP168
       T01281100 10189 20128 51017 TSNO

METAR KRQE 200653Z AUTO 00000KT 10SM FEW110 01/M01 A3020 RMK AO2 SLP179
       T00061011 401441022
METAR KRQE 200553Z AUTO 00000KT 10SM CLR 03/00 A3019 RMK AO2 SLP176
       T00280000 10122 20017 51009

Flagstaff (KFSX) 03/20/19 07:15 UTC
Radar VAD winds      Height      Dir/Spd(kt)
                  14000 FT MSL...203/014
                  13000 FT MSL...205/018
                  12000 FT MSL...173/022
                  11000 FT MSL...190/021
                  10800 FT MSL...204/023
                  10000 FT MSL...193/019
                  10000 FT MSL...196/019
                   9200 FT MSL...183/018
                   9000 FT MSL...190/019
                   8500 FT MSL...169/017
                   8100 FT MSL...180/021
                   8000 FT MSL...173/018
                   7800 FT MSL...176/019

Flagstaff Aviation Discussion
Issued at 0347 UTC Wednesday, March 20, 2019

.AVIATION...For the 06Z Package...Mainly VFR conditions will
continue through the 24hr TAF period. A few showers remain north of
the Mogollon Rim this evening from KGCN south to KSJN. Expect these
to gradually diminish. Winds will generally be less than 10kts
overnight. Showers will develop after 18Z Wednesday with local areas
of MVFR/IFR near heavier showers. South to southwest winds 10G20KT
after 18z. Aviation discussion not updated for TAF amendments.


* * * * * Utah * * * * *

KSLC 200533Z 2006/2112 13008KT P6SM FEW200
     FM201800 18011KT P6SM SCT150
     FM210300 16008KT P6SM SCT100 BKN150
METAR KSLC 200654Z 12010KT 10SM FEW200 07/M06 A3019 RMK AO2 SLP208
       T00721061 401440006
METAR KSLC 200554Z 10011KT 10SM FEW200 08/M06 A3020 RMK AO2 SLP212
       T00781061 10133 20078 51008
METAR KSLC 200454Z 11009KT 10SM FEW200 09/M06 A3019 RMK AO2 SLP211
       T00891061

KVEL 200528Z 2006/2106 VRB03KT P6SM SKC
     FM201500 VRB03KT P6SM FEW250
     FM202100 11005KT P6SM FEW140 BKN200
METAR KVEL 200653Z AUTO 32003KT 10SM CLR M02/M07 A3033 RMK AO2 SLP282
       T10171067 400781067
METAR KVEL 200553Z AUTO 31006KT 10SM CLR M02/M07 A3033 RMK AO2 SLP288
       T10171067 10078 21022 51008
METAR KVEL 200453Z AUTO 34003KT 10SM CLR M02/M07 A3033 RMK AO2 SLP288
       T10221067

METAR KPUC 200653Z AUTO 31003KT 10SM CLR 02/M09 A3026 RMK AO2 SLP254
       T00171089 401170000
METAR KPUC 200553Z AUTO 34006KT 10SM CLR 03/M09 A3027 RMK AO2 SLP255
       T00281089 10100 20028 51012

KCNY 200528Z 2006/2106 06015KT P6SM SKC
     FM200900 34005KT P6SM FEW250
     FM201600 05006KT P6SM FEW250
     FM210200 05008KT P6SM VCSH SCT110 BKN140
METAR KCNY 200553Z AUTO 07013KT 10SM CLR 06/M11 A3022 RMK AO2 SLP217
       T00611111 10144 20056 51014
METAR KCNY 200453Z AUTO 06015KT 10SM CLR 07/M11 A3021 RMK AO2 PK WND
        05026/0418 SLP217 T00721106


Salt Lake City (KMTX) 03/20/19 07:16 UTC
Radar VAD winds      Height      Dir/Spd(kt)
                  22000 FT MSL...340/003
                  20000 FT MSL...007/003
                  19000 FT MSL...007/002
                  18000 FT MSL...036/003
                  17800 FT MSL...049/004
                  16000 FT MSL...007/003
                  15500 FT MSL...023/002
                  15000 FT MSL...341/004
                  14000 FT MSL...101/022
                  13000 FT MSL...134/031
                  12200 FT MSL...143/035
                  12000 FT MSL...145/035
                  11000 FT MSL...149/035
                  10900 FT MSL...148/034
                  10000 FT MSL...152/033
                   9900 FT MSL...155/034
                   9100 FT MSL...157/033
                   9000 FT MSL...157/033
                   8300 FT MSL...159/031
                   8000 FT MSL...156/032
                   7600 FT MSL...158/029
                   7100 FT MSL...149/022
                   7000 FT MSL...149/030
                   6900 FT MSL...145/024

Salt Lake City Aviation Discussion
Issued at 0246 UTC Wednesday, March 20, 2019

.AVIATION...VFR conditions with south winds are expected through
the overnight hours at KSLC.


* * * * * Wyoming * * * * *

KEVW 200533Z 2006/2106 06007KT P6SM SKC
     FM201600 07012KT P6SM SKC=
METAR KEVW 200653Z AUTO 13004KT 10SM CLR M09/M12 A3028 RMK AO2 SLP293
       T10891122 400001111
METAR KEVW 200553Z AUTO 11007KT 10SM CLR M08/M11 A3029 RMK AO2 SLP295
       T10781111 11006 21083 50002
METAR KEVW 200453Z AUTO 11005KT 10SM CLR M07/M12 A3029 RMK AO2 SLP299
       T10671117

KRKS 200525Z 2006/2106 VRB04KT P6SM SKC
     FM201100 10005KT P6SM VCFG FEW002
     FM201600 09005KT P6SM SKC
METAR KRKS 200654Z AUTO 26004KT 10SM CLR M05/M08 A3032 RMK AO2 SLP300
       T10501078 400391083
METAR KRKS 200554Z AUTO 20005KT 10SM CLR M04/M08 A3031 RMK AO2 SLP301
       T10441078 10033 21044 51006
METAR KRKS 200454Z AUTO 18004KT 10SM CLR M03/M07 A3031 RMK AO2 SLP300
       T10281072

KRWL 200520Z 2006/2106 VRB03KT P6SM SKC
METAR KRWL 200653Z AUTO 00000KT 10SM CLR M10/M12 A3032 RMK AO2 SLP307
       T11001122 400171122
METAR KRWL 200553Z AUTO 00000KT 10SM CLR M09/M11 A3032 RMK AO2 SLP307
       T10891106 10017 21089 53006
METAR KRWL 200453Z AUTO 12003KT 10SM CLR M08/M11 A3031 RMK AO2 SLP306
       T10831106

KLAR 200520Z 2006/2106 VRB04KT P6SM SKC
     FM201900 36005KT P6SM SKC
METAR KLAR 200653Z AUTO 15008KT 10SM CLR M11/M14 A3028 RMK AO2 SLP299
       T11061139 410061128
METAR KLAR 200553Z AUTO 16006KT 10SM CLR M11/M13 A3028 RMK AO2 SLP300
       T11061133 11022 21122 51007
METAR KLAR 200453Z AUTO 19004KT 10SM CLR M10/M13 A3027 RMK AO2 SLP299
       T11001133

KCYS 200520Z 2006/2106 30010KT P6SM SKC
     FM201900 34010G17KT P6SM SKC
METAR KCYS 200653Z AUTO 28009KT 10SM CLR M04/M09 A3026 RMK AO2 SLP273
       T10391094 400391039
METAR KCYS 200553Z AUTO 30011KT 10SM CLR M02/M09 A3025 RMK AO2 SLP272
       T10221089 10022 21022 50003
METAR KCYS 200453Z AUTO 30009KT 10SM CLR M02/M08 A3026 RMK AO2 SLP274
       T10221083

Riverton (KRIW) 03/20/19 07:17 UTC
Radar VAD winds      Height      Dir/Spd(kt)
                   8100 FT MSL...185/020
                   8000 FT MSL...184/022
                   7300 FT MSL...178/024
                   7000 FT MSL...177/026
                   6700 FT MSL...183/025

Cheyenne (KCYS) 03/20/19 07:09 UTC
Radar VAD winds      Height      Dir/Spd(kt)
                   8000 FT MSL...306/026

Riverton Aviation Discussion
Issued at 0504 UTC Wednesday, March 20, 2019

.AVIATION...(For the 06Z TAFS through 06Z Wednesday night)
Issued at 1101 PM MDT Tue Mar 19 2019
Patchy morning fog over the southwest, otherwise mainly SKC and
light winds.

Cheyenne Aviation Discussion
Issued at 0533 UTC Wednesday, March 20, 2019

.AVIATION...(For the 06Z TAFS through 06Z Wednesday night)
Issued at 1122 PM MDT Tue Mar 19 2019
VFR conditions will continue across most terminals tonight. High
res. models indicate some fog and/or low CIGS development near
KAIA through 20/09Z. Otherwise, relatively clear skies and light
winds through the overnight period. NW winds pick up along the
I-25 corridor and to its east around 20/18Z to about 20 kts,
diminishing around 21/00Z.


* * * * * Nebraska * * * * *

METAR KIBM 200715Z AUTO 27003KT 10SM CLR M05/M07 A3026 RMK AO2
       T10491068
METAR KIBM 200655Z AUTO 00000KT 10SM CLR M03/M06 A3026 RMK AO2
       T10351060
METAR KIBM 200630Z AUTO 28008KT 10SM CLR M02/M05 A3026 RMK AO2
       T10251052

KSNY 200520Z 2006/2106 29010KT P6SM FEW050
     FM201400 33015G25KT P6SM SKC
METAR KSNY 200653Z AUTO 26009KT 10SM CLR M04/M06 A3026 RMK AO2 SLP267
       T10391056 400721061
METAR KSNY 200553Z AUTO 26008KT 10SM CLR M05/M07 A3027 RMK AO2 SLP278
       T10501067 10044 21050 50002
METAR KSNY 200453Z AUTO 29007KT 10SM CLR M04/M06 A3027 RMK AO2 SLP275
       T10391061

METAR KOGA 200715Z AUTO 27003KT 10SM CLR M04/M05 A3025 RMK AO2
       T10401048
METAR KOGA 200655Z AUTO 26004KT 10SM CLR M04/M05 A3025 RMK AO2 T10401046
       400991049
METAR KOGA 200635Z AUTO 26004KT 10SM CLR M04/M05 A3026 RMK AO2
       T10411048

METAR KIML 200653Z AUTO 28005KT 10SM CLR M03/M07 A3026 RMK AO2 SLP265
       T10281067 401111033
METAR KIML 200553Z AUTO 31005KT 10SM CLR M02/M06 A3027 RMK AO2 SLP270
       T10221061 10056 21022 50007
METAR KIML 200453Z AUTO 32008KT 10SM CLR M01/M05 A3028 RMK AO2 SLP272
       T10111050

KMCK 200520Z 2006/2106 31007KT P6SM FEW140
     FM202300 35012KT P6SM SKC
SPECI KMCK 200719Z AUTO 26007KT 6SM BR SCT019 M02/M02 A3026 RMK AO2
       T10221022
METAR KMCK 200653Z AUTO 29007KT 7SM OVC019 M01/M01 A3027 RMK AO2 SLP262
       I1000 T10061011
SPECI KMCK 200641Z AUTO 29008KT 7SM BKN020 M01/M02 A3027 RMK AO2 I1000
       T10111017

North Platte (KLNX) 03/20/19 07:22 UTC
Radar VAD winds      Height      Dir/Spd(kt)
                   5000 FT MSL...204/026
                   4800 FT MSL...219/023
                   4000 FT MSL...220/019

North Platte Aviation Discussion
Issued at 0444 UTC Wednesday, March 20, 2019

.AVIATION...(For the 06Z TAFS through 06Z Wednesday night)
Issued at 1139 PM CDT Tue Mar 19 2019
The MVFR ceilings across portions of north central NEB will move
off to the southeast...with VFR conditions prevailing the next 24
hrs across the region. Winds will be west to northwest overnight
at 5 to 10 kt. Winds will increase from the north to northwest at
10 to 20 kt on Wednesday.


* * * * * Kansas * * * * *

KGLD 200520Z 2006/2106 31007KT P6SM SKC
     FM202200 34012KT P6SM SKC
METAR KGLD 200653Z AUTO 29011KT 10SM CLR M03/M04 A3026 RMK AO2 SLP257
       T10281044 401281044
METAR KGLD 200553Z AUTO 26007KT 10SM CLR M04/M06 A3027 RMK AO2 SLP260
       T10391056 10089 21044 50007
METAR KGLD 200453Z AUTO 28006KT 10SM CLR M03/M06 A3027 RMK AO2 SLP264
       T10331056

KGCK 200536Z 2006/2106 31007KT P6SM SCT150
     FM201700 31013G19KT P6SM SKC
     FM210200 32006KT P6SM SKC
SPECI KGCK 200713Z AUTO 31004KT 4SM BR CLR M03/M03 A3027 RMK AO2
       T10281033
METAR KGCK 200654Z AUTO 25007KT 2 1/2SM BR CLR M03/M03 A3027 RMK AO2
       SLP259 T10281028
METAR KGCK 200554Z AUTO 36007KT 5SM BR CLR M01/M01 A3026 RMK AO2 SLP255
       T10061006 10122 21006 401441006 50010

METAR KLBL 200656Z AUTO 03007KT 10SM BKN110 04/01 A3029 RMK AO2 SLP259
       T00390011
METAR KLBL 200556Z AUTO 03008KT 10SM BKN110 04/01 A3028 RMK AO2 SLP257
       T00440006 10128 20044 401500044 51017
METAR KLBL 200456Z AUTO 36009KT 10SM CLR 05/M02 A3026 RMK AO2 SLP249
       T00501022

METAR KEHA 200715Z AUTO 35006KT 10SM CLR 03/00 A3029 RMK AO2
       T00330000
METAR KEHA 200655Z AUTO 35006KT 10SM CLR 04/00 A3028 RMK AO2
       T00400000
METAR KEHA 200635Z AUTO 36007KT 10SM CLR 04/00 A3028 RMK AO2
       T00420000

Goodland (KGLD) 03/20/19 07:15 UTC
Radar VAD winds      Height      Dir/Spd(kt)
                   5000 FT MSL...260/018
                   4700 FT MSL...249/026
                   4600 FT MSL...313/006

Dodge City (KDDC) 03/20/19 07:18 UTC
Radar VAD winds      Height      Dir/Spd(kt)
                   6000 FT MSL...132/011
                   5800 FT MSL...135/009
                   5000 FT MSL...091/004

Goodland Aviation Discussion
Issued at 0504 UTC Wednesday, March 20, 2019

.AVIATION...(For the 06Z TAFS through 06Z Wednesday night)
Issued at 1103 PM MDT Tue Mar 19 2019
VFR conditions are expected to prevail throughout the remainder of
the TAF period at both the McCook and Goodland terminals. Winds
will stay mostly NW around 10 kts.

Dodge City Aviation Discussion
Issued at 0546 UTC Wednesday, March 20, 2019

.AVIATION...(For the 06Z TAFS through 06Z Wednesday night)
Issued at 1243 AM CDT Wed Mar 20 2019
Skies will clear out of KHYS later tonight as an upper level
disturbance moves away from Kansas. Light winds will increase
from the northwest at 10-13 kts with daytime heating and then
fall back after sunset. A cold front will pass across the TAF
sites after 06z, with north winds around 10 kts.


* * * * * Texas/Oklahoma * * * * *

KGUY 200539Z 2006/2106 35006KT P6SM OVC130
     FM201300 29006KT P6SM SCT250
     FM201800 32012KT P6SM SKC=
METAR KGUY 200653Z AUTO 35008KT 10SM CLR 04/M03 A3027 RMK AO2 SLP243
       T00441028
METAR KGUY 200553Z AUTO 36007KT 10SM FEW110 06/M04 A3027 RMK AO2 SLP244
       T00561039 10128 20056 401560044 51018
METAR KGUY 200453Z AUTO 36006KT 10SM OVC110 07/M03 A3025 RMK AO2 SLP236
       T00721033

KDHT 200539Z 2006/2106 01011KT P6SM VCSH OVC070
     FM201200 34005KT P6SM BKN130
     FM201800 31007KT P6SM SKC
METAR KDHT 200653Z AUTO 35004KT 10SM FEW049 BKN090 06/01 A3028 RMK AO2
       RAE01 SLP237 P0000 T00560006
METAR KDHT 200553Z AUTO 35008KT 10SM -RA BKN038 OVC070 06/01 A3029 RMK
       AO2 RAB45 SLP241 P0000 60000 T00610011 10117 20061 401391011
       51018

Amarillo (KAMA) 03/20/19 07:17 UTC
Radar VAD winds      Height      Dir/Spd(kt)
                  22000 FT MSL...274/044
                  21000 FT MSL...270/038
                  20000 FT MSL...272/037
                  19000 FT MSL...276/035
                  18000 FT MSL...275/033
                  17500 FT MSL...273/032
                  17000 FT MSL...274/031
                  16000 FT MSL...273/028
                  15000 FT MSL...277/027
                  14900 FT MSL...279/029
                  14000 FT MSL...279/026
                  13000 FT MSL...272/025
                  12600 FT MSL...266/026
                  12000 FT MSL...256/024
                  11000 FT MSL...243/020
                  10800 FT MSL...241/020
                  10000 FT MSL...236/015
                   9300 FT MSL...249/010
                   8000 FT MSL...019/017
                   7000 FT MSL...024/018
                   7000 FT MSL...031/014
                   6200 FT MSL...033/016
                   6000 FT MSL...028/018
                   5400 FT MSL...031/018
                   5000 FT MSL...036/017
                   4700 FT MSL...031/018
                   4300 FT MSL...061/013
                   4000 FT MSL...069/011
                   4000 FT MSL...073/012

Amarillo Aviation Discussion
Issued at 0546 UTC Wednesday, March 20, 2019

.AVIATION...06Z TAFS...
VFR conditions will prevail at all TAF sites over the next 24
hours. Slight chance of brief MVFR cigs at KAMA due to rain
showers, but overall looks like cigs will hover around 6kft AGL.
Showers will clear out by 15z, and give way to mostly clear skies.
Winds will likely be in the 5 to 15kt range out of the north and
northwest.
Weber


* * * * * New Mexico * * * * *

KFMN 200532Z 2006/2106 01006KT P6SM SCT250
     FM200800 07006KT P6SM SCT250
     FM201200 10012KT P6SM FEW070 SCT250
     FM201800 12007KT P6SM SCT080 BKN250
     FM210300 10011KT P6SM BKN080
METAR KFMN 200653Z AUTO 36005KT 10SM CLR 02/M07 A3017 RMK AO2 SLP200
       T00221067 401721011
METAR KFMN 200553Z AUTO 33005KT 10SM CLR 04/M07 A3015 RMK AO2 SLP196
       T00391067 10156 20033 51011
METAR KFMN 200453Z AUTO 01006KT 10SM CLR 04/M08 A3014 RMK AO2 SLP197
        T00441078

METAR KSKX 200656Z AUTO 05003KT 10SM SCT070 02/M03 A3026 RMK AO2 RAE24
       SLP227 P0000 T00221033 401110006 FZRANO $
METAR KSKX 200556Z AUTO 11012KT 10SM -RA FEW046 BKN055 OVC090 03/M02
       A3024 RMK AO2 RAE13B56 SLP223 P0000 60000 T00331022 10100
       20028 51018 $
METAR KSKX 200456Z AUTO 14007KT 10SM -RA BKN048 OVC090 04/M02 A3024 RMK
       AO2 RAB51 SLP226 P0000 T00441017 $

KLVS 200532Z 2006/2106 05009KT 1SM -SN BR OVC002
     FM200900 04008KT P6SM OVC008
     FM201700 VRB04KT P6SM SCT030
     FM210200 18006KT P6SM BKN250
METAR KLVS 200653Z AUTO 05008KT 6SM BR OVC002 M01/M01 A3028 RMK AO2
       SNE05 SLP214 P0000 T10061006 401441028
SPECI KLVS 200615Z AUTO 04009KT 4SM BR OVC002 00/M01 A3028 RMK AO2 SNE05
       P0000 T00001006
METAR KLVS 200553Z AUTO 04008KT 2 1/2SM -SN BR OVC003 00/M01 A3029 RMK
       AO2 SLP218 P0000 60005 I6000 T00001006 10028 20000 50009

SPECI KRTN 200716Z AUTO 36004KT 3SM BR BKN042 M04/M06 A3029 RMK AO2
       T10441061
SPECI KRTN 200705Z AUTO 00000KT 1 3/4SM BR SCT042 M04/M05 A3029 RMK AO2
       T10391050
METAR KRTN 200653Z AUTO 35003KT 8SM FEW060 M03/M04 A3029 RMK AO2 SLP252
       T10331044 401061033

METAR KCAO 200655Z AUTO 24004KT 10SM FEW050 SCT070 OVC100 02/00 A3028
        RMK AO2 SLP248 T00170000 401170017
METAR KCAO 200555Z AUTO 23006KT 10SM OVC049 02/01 A3028 RMK AO2
       RAE08UPB08E10 SLP247 P0000 60003 T00220006 10067 20017
       50009
METAR KCAO 200455Z AUTO 28006KT 10SM -RA OVC034 02/01 A3029 RMK AO2
       RAE27B46UPB15E17B43E46 SLP253 P0000 T00170006

Albuquerque (KABX) 03/20/19 07:17 UTC
Radar VAD winds      Height      Dir/Spd(kt)
                  19000 FT MSL...271/020
                  18000 FT MSL...277/020
                  17100 FT MSL...287/024
                  17000 FT MSL...280/020
                  16000 FT MSL...273/025
                  15000 FT MSL...279/019
                  14800 FT MSL...272/023
                  14000 FT MSL...276/019
                  13000 FT MSL...277/013
                  12900 FT MSL...284/011
                  12000 FT MSL...231/020
                  11400 FT MSL...255/014
                  11000 FT MSL...197/019
                  10000 FT MSL...196/020
                   9000 FT MSL...190/020
                   8300 FT MSL...173/021
                   8000 FT MSL...182/024
                   7600 FT MSL...173/021
                   7000 FT MSL...169/017
                   7000 FT MSL...171/015
                   6500 FT MSL...160/021
                   6300 FT MSL...162/017

Albuquerque Aviation Discussion
Issued at 0601 UTC Wednesday, March 20, 2019

.AVIATION...
06Z TAF CYCLE
A back door cold front has pushed through the eastern plains and
through the gaps of the central mountain chain tonight. Breezy gap
winds at KSAF and KABQ with gusts near 25-30kts will persist for
several more hours. Meanwhile, rain and snow showers will continue
from the Sangre de Cristo and Sandia Mountains eastward across the
plains through 11-12Z. Snow levels will be near 5500-6000 feet. Mtn
obscurations are likely. Additionally, IFR to MVFR cigs will be
widespread across the plains, with even lower conditions at KLVS.
These cigs should improve by 16-20Z in most locations. This
afternoon, another round of showers and perhaps a thunderstorm, is
expected across western NM. This precipitation will linger into the
overnight period.
34

* * * * * Winds and Temperatures Aloft Forecasts * * * * *

DATA BASED ON 200000Z
VALID 200600Z   FOR USE 0500-0900Z. TEMPS NEG ABV 24000
FT  3000    6000   9000    12000   18000   24000  30000  34000  39000
SLC      1407    1310+00 1316-06 1125-20 1138-34 990047 292655 271457
BCE                      1615-05 2213-19 2619-30 251947 242156 253257
LND              3611-02 0416-07 0628-20 0630-33 074249 083557 032658
RKS              0205    0421-08 0723-21 0732-34 094949 082557 331356
GJT              0510-02 0509-07 0414-21 0717-35 295645 295454 284554
FMN              3309+02 2915-05 2921-20 2841-30 284445 275053 276853
ABQ              9900+03 2908-05 2828-19 2850-29 275045 277050 269551
MBW              3219    0121-09 0434-21 0543-34 065649 063956 362554
DEN              3313-07 3323-12 0347-24 0458-35 032847 333051 294349
PUB              3612-07 2818-12 3131-25 3038-36 296944 296948 286747
ALS                      3212-08 3026-22 2948-33 297245 287152 277749
TCC      0522    1211-03 2522-06 2635-20 2852-30 286544 278447 279951
BFF      3324    3420-06 0125-12 0344-22 0453-34 056849 044755 352852
GLD      3316    3319-09 3227-15 3326-30 3423-36 313142 303745 295145
GCK      3217+00 3024-07 3236-13 2760-26 2577-37 288443 287745 287546
GAG      3518+01 3320-06 2718-09 2753-22 2671-36 289544 289645 780247
AMA      0420    2206-03 2421-07 2841-20 2861-32 287744 279445 770249
---------------------------------------------------------------------

DATA BASED ON 200000Z
VALID 201200Z   FOR USE 0900-1800Z. TEMPS NEG ABV 24000
FT  3000    6000   9000    12000   18000   24000  30000  34000  39000
SLC      1308    1416+02 1516-05 1429-20 1326-33 260847 290756 150959
BCE                      1821-05 2013-19 2424-32 202048 212656 253655
LND              0205-02 0710-06 0714-20 0719-32 082048 102256 062562
RKS              0812    0915-06 0914-19 0915-32 102848 102757 091859
GJT              1108-01 1107-05 1114-20 0807-33 302947 302656 272156
FMN              9900+02 2811-05 3113-20 2835-30 282647 273355 264953
ABQ              9900+01 2813-05 2924-20 2740-30 264546 266152 269250
MBW              3415    0217-07 0321-20 0425-32 062848 062356 032560
DEN              3419-04 3621-08 0325-20 0429-33 063648 032255 312255
PUB              3216-04 3526-09 0231-21 0432-33 012447 323352 284652
ALS                      3213-07 0323-20 3135-32 305146 294554 275252
TCC      0413    3305-04 2924-06 2941-20 2862-30 276245 277149 269550
BFF      3328    3521-02 0124-09 0231-21 0337-33 043848 043555 013259
GLD      3325    3429-06 3525-11 0346-22 0453-33 044748 363051 304050
GCK      3120-03 3327-08 3329-14 3431-25 3633-34 313843 295146 286648
GAG      3316-01 3230-06 3039-12 2759-23 2781-31 288743 278747 279047
AMA      0118    3320-05 2930-09 2850-22 2874-29 286944 278148 770050
---------------------------------------------------------------------

DATA BASED ON 200000Z
VALID 210000Z   FOR USE 1800-0500Z. TEMPS NEG ABV 24000
FT  3000    6000   9000    12000   18000   24000  30000  34000  39000
SLC      1106    1517+03 1718-04 1625-19 1721-31 192548 182957 172058
BCE                      1529-05 1836-18 1936-30 193949 204457 223554
LND              1411+00 1412-05 1311-19 1412-32 132047 132356 161562
RKS              1315    1516-04 1512-19 1517-32 142348 142656 171060
GJT              1507+03 1813-04 1717-19 2310-30 242348 222156 231957
FMN              1214+05 1415-04 2215-18 2413-30 244147 244356 264152
ABQ              1310+03 1905-03 2316-17 2622-29 264247 255155 276351
MBW              9900    0806-04 9900-19 0911-31 101947 101856 200561
DEN              0106+00 3205-05 3607-19 3608-31 020647 020555 281560
PUB              9900+01 3508-05 3409-19 3112-31 990047 270755 283255
ALS                      1506-04 9900-19 2923-30 282947 272755 273556
TCC      9900    9900+00 3508-04 3212-19 3142-29 285247 285252 284954
BFF      3414    3515+00 0113-05 0311-19 0417-31 042047 052256 341762
GLD      3318    3426-01 3522-05 3619-19 0423-31 012047 362255 302458
GCK      3217+05 3425-01 3526-06 3424-19 3426-32 333147 323154 294255
GAG      3117+05 3624-01 3525-06 3428-19 3329-31 322846 303252 286050
AMA      3109    3211-02 3519-04 3319-18 3131-31 304246 294752 275751
---------------------------------------------------------------------

This product is updated automatically at approximately 10, 30 and 50
minutes after each hour, 24 hours per day, 7 days per week.  It may
become unavailable at times due to system outages without prior notice.
Users are advised to check the time at the top of the product to ensure
that it is current.  Furthermore, content and format of the product are
subject to change without prior notice.

Comments and suggestions are welcome and should be directed to one of
the addresses or phone numbers shown at the bottom of this page.  In
order to expedite a response to comments or suggestions, be sure to
mention your interest in the hot-air balloon forecast.



USA.gov is the U.S. government's official web portal to all federal, state and local government web resources and services.